North East, Pennsylvania
Current Conditions -  °F | °C
As of 4:51 PM on Tuesday 25 Nov 2014 (Local Time) from KERI Reporting Station
Overcast Overcast  
Wind Chill: 29°   Ceiling: 2800
Heat Index: 37°   Visibility: 10mi
Dew Point: 24°   Wind: 13mph
Humidity: 59%   Direction: 240°WSW
Pressure: 30.08"   Gusts: 22mph
Location:  42.22°N, 79.83°W
Report Text: KERI 252151Z 24011G19KT 10SM OVC028 03/M04 A3008 RMK AO2 SLP192 T00281044
Loading
Personal Weather Stations






























Interactive Weather Map New forecast layout! Learn more

10-Day Weather Forecast

Advertisements
Track Severe Weather on mobile